createdAt,value
2018-01-11T00:01:38.028Z,8.90
2018-01-11T00:04:04.929Z,8.82
2018-01-11T00:06:32.028Z,9.10
2018-01-11T00:08:58.624Z,8.80
2018-01-11T00:11:25.553Z,9.68
2018-01-11T00:13:52.183Z,11.35
2018-01-11T00:16:18.832Z,10.93
2018-01-11T00:18:45.749Z,10.93
2018-01-11T00:21:14.495Z,10.00
2018-01-11T00:23:42.466Z,9.40
2018-01-11T00:26:10.968Z,9.50
2018-01-11T00:28:38.058Z,8.15
2018-01-11T00:31:04.875Z,9.40
2018-01-11T00:33:31.948Z,7.03
2018-01-11T00:35:58.684Z,10.50
2018-01-11T00:38:25.241Z,10.63
2018-01-11T00:40:52.198Z,10.75
2018-01-11T00:43:19.248Z,9.02
2018-01-11T00:45:46.316Z,8.05
2018-01-11T00:48:14.904Z,8.10
2018-01-11T00:50:42.010Z,8.27
2018-01-11T00:53:09.805Z,8.43
2018-01-11T00:55:36.561Z,8.43
2018-01-11T00:58:04.134Z,8.50
2018-01-11T01:00:30.806Z,6.47
2018-01-11T01:02:57.433Z,7.07
2018-01-11T01:05:24.110Z,8.18
2018-01-11T01:07:50.759Z,8.50
2018-01-11T01:10:17.922Z,8.05
2018-01-11T01:12:44.888Z,7.57
2018-01-11T01:15:11.937Z,7.80
2018-01-11T01:17:40.116Z,7.18
2018-01-11T01:20:06.866Z,7.60
2018-01-11T01:22:33.725Z,6.50
2018-01-11T01:25:00.480Z,6.65
2018-01-11T01:27:27.539Z,6.30
2018-01-11T01:29:54.104Z,8.07
2018-01-11T01:32:20.641Z,6.90
2018-01-11T01:34:47.370Z,9.80
2018-01-11T01:37:14.647Z,10.15
2018-01-11T01:39:42.939Z,9.50
2018-01-11T01:42:10.801Z,6.90
2018-01-11T01:44:38.079Z,10.68
2018-01-11T01:47:05.209Z,9.18
2018-01-11T01:49:32.719Z,9.20
2018-01-11T01:51:59.563Z,8.93
2018-01-11T01:54:26.110Z,7.85
2018-01-11T01:56:52.665Z,8.50
2018-01-11T01:59:19.238Z,6.28
2018-01-11T02:01:46.040Z,7.35
2018-01-11T02:04:13.868Z,6.53
2018-01-11T02:06:41.610Z,5.70
2018-01-11T02:09:08.502Z,5.87
2018-01-11T02:11:35.290Z,6.72
2018-01-11T02:14:02.065Z,6.10
2018-01-11T02:16:28.821Z,6.30
2018-01-11T02:18:55.391Z,6.37
2018-01-11T02:21:22.006Z,6.32
2018-01-11T02:23:48.669Z,5.57
2018-01-11T02:26:15.320Z,6.25
2018-01-11T02:28:42.686Z,6.65
2018-01-11T02:31:09.677Z,7.45
2018-01-11T02:33:36.733Z,7.75
2018-01-11T02:36:04.269Z,7.03
2018-01-11T02:38:30.917Z,6.95
2018-01-11T02:40:57.543Z,7.05
2018-01-11T02:43:24.189Z,7.25
2018-01-11T02:45:50.865Z,6.45
2018-01-11T02:48:17.839Z,6.37
2018-01-11T02:50:45.921Z,6.30
2018-01-11T02:53:14.537Z,5.75
2018-01-11T02:55:42.648Z,6.22
2018-01-11T02:58:10.647Z,6.55
2018-01-11T03:00:37.428Z,7.20
2018-01-11T03:03:04.583Z,7.10
2018-01-11T03:05:31.372Z,7.32
2018-01-11T03:07:58.045Z,6.20
2018-01-11T03:10:24.708Z,7.30
2018-01-11T03:12:51.303Z,7.03
2018-01-11T03:15:18.009Z,6.40
2018-01-11T03:17:44.873Z,7.30
2018-01-11T03:20:13.276Z,7.53
2018-01-11T03:22:42.284Z,6.28
2018-01-11T03:25:09.941Z,5.93
2018-01-11T03:27:36.641Z,6.12
2018-01-11T03:30:03.693Z,5.68
2018-01-11T03:32:30.416Z,5.70
2018-01-11T03:34:57.397Z,5.55
2018-01-11T03:37:24.026Z,5.82
2018-01-11T03:39:50.601Z,6.10
2018-01-11T03:42:17.634Z,6.05
2018-01-11T03:44:44.973Z,5.18
2018-01-11T03:47:12.168Z,4.87
2018-01-11T03:49:40.965Z,6.18
2018-01-11T03:52:08.042Z,6.47
2018-01-11T03:54:34.868Z,6.15
2018-01-11T03:57:02.238Z,6.03
2018-01-11T03:59:28.842Z,6.70
2018-01-11T04:01:55.409Z,6.07
2018-01-11T04:04:21.970Z,5.95
2018-01-11T04:06:48.601Z,6.32
2018-01-11T04:09:15.665Z,6.95
2018-01-11T04:11:44.674Z,6.25
2018-01-11T04:14:12.277Z,5.65
2018-01-11T04:16:41.426Z,6.18
2018-01-11T04:19:08.457Z,5.50
2018-01-11T04:21:35.796Z,6.53
2018-01-11T04:24:03.067Z,5.47
2018-01-11T04:26:30.098Z,5.03
2018-01-11T04:28:57.053Z,7.22
2018-01-11T04:31:23.697Z,5.28
2018-01-11T04:33:50.273Z,4.35
2018-01-11T04:36:17.009Z,5.15
2018-01-11T04:38:44.801Z,4.93
2018-01-11T04:41:13.228Z,7.55
2018-01-11T04:43:41.821Z,7.15
2018-01-11T04:46:11.378Z,6.62
2018-01-11T04:48:38.670Z,6.28
2018-01-11T04:51:05.309Z,6.00
2018-01-11T04:53:32.078Z,6.72
2018-01-11T04:55:59.102Z,6.30
2018-01-11T04:58:25.645Z,4.70
2018-01-11T05:00:53.142Z,5.70
2018-01-11T05:03:19.764Z,5.35
2018-01-11T05:05:46.444Z,5.47
2018-01-11T05:08:15.455Z,6.43
2018-01-11T05:10:42.984Z,5.45
2018-01-11T05:13:13.379Z,6.90
2018-01-11T05:15:41.391Z,5.95
2018-01-11T05:18:08.826Z,5.65
2018-01-11T05:20:36.573Z,6.47
2018-01-11T05:23:03.434Z,6.50
2018-01-11T05:25:30.494Z,6.12
2018-01-11T05:27:57.217Z,5.62
2018-01-11T05:30:23.899Z,5.80
2018-01-11T05:32:50.548Z,6.03
2018-01-11T05:35:17.812Z,5.93
2018-01-11T05:37:46.101Z,5.30
2018-01-11T05:40:14.694Z,5.87
2018-01-11T05:42:42.368Z,5.60
2018-01-11T05:45:10.862Z,5.22
2018-01-11T05:47:38.845Z,5.00
2018-01-11T05:50:05.703Z,5.55
2018-01-11T05:52:32.754Z,5.90
2018-01-11T05:54:59.348Z,5.65
2018-01-11T05:57:26.284Z,5.45
2018-01-11T05:59:52.876Z,4.95
2018-01-11T06:02:19.528Z,5.12
2018-01-11T06:04:46.421Z,5.90
2018-01-11T06:07:13.987Z,5.47
2018-01-11T06:09:41.362Z,6.30
2018-01-11T06:12:09.534Z,6.10
2018-01-11T06:14:36.769Z,6.00
2018-01-11T06:17:03.562Z,5.57
2018-01-11T06:19:30.135Z,5.82
2018-01-11T06:21:57.157Z,6.03
2018-01-11T06:24:23.737Z,5.15
2018-01-11T06:26:50.326Z,6.18
2018-01-11T06:29:17.042Z,5.65
2018-01-11T06:31:44.987Z,5.82
2018-01-11T06:34:12.520Z,5.20
2018-01-11T06:36:42.649Z,6.60
2018-01-11T06:39:11.637Z,6.97
2018-01-11T06:41:39.007Z,6.22
2018-01-11T06:44:07.139Z,6.55
2018-01-11T06:46:33.861Z,5.80
2018-01-11T06:49:00.547Z,5.80
2018-01-11T06:51:27.569Z,5.40
2018-01-11T06:53:54.137Z,6.53
2018-01-11T06:56:20.725Z,6.25
2018-01-11T06:58:47.405Z,5.82
2018-01-11T07:01:14.198Z,7.90
2018-01-11T07:03:41.461Z,9.10
2018-01-11T07:06:08.402Z,9.35
2018-01-11T07:08:35.049Z,8.90
2018-01-11T07:11:01.823Z,7.90
2018-01-11T07:13:28.570Z,7.53
2018-01-11T07:15:55.294Z,10.65
2018-01-11T07:18:21.943Z,8.80
2018-01-11T07:20:48.594Z,7.80
2018-01-11T07:23:15.557Z,8.15
2018-01-11T07:25:42.213Z,6.80
2018-01-11T07:28:09.213Z,8.10
2018-01-11T07:30:36.257Z,7.85
2018-01-11T07:33:03.065Z,6.43
2018-01-11T07:35:29.747Z,11.73
2018-01-11T07:37:56.395Z,11.95
2018-01-11T07:40:23.044Z,8.25
2018-01-11T07:42:50.084Z,7.65
2018-01-11T07:45:17.061Z,6.30
2018-01-11T07:47:44.528Z,6.47
2018-01-11T07:50:11.186Z,7.40
2018-01-11T07:52:37.773Z,7.82
2018-01-11T07:55:05.074Z,7.03
2018-01-11T07:57:31.712Z,6.20
2018-01-11T07:59:58.265Z,7.12
2018-01-11T08:02:24.805Z,7.90
2018-01-11T08:04:51.459Z,7.22
2018-01-11T08:07:18.443Z,7.00
2018-01-11T08:09:45.108Z,6.32
2018-01-11T08:12:11.729Z,7.53
2018-01-11T08:14:38.359Z,6.90
2018-01-11T08:17:05.039Z,5.80
2018-01-11T08:19:31.756Z,7.68
2018-01-11T08:21:58.310Z,6.68
2018-01-11T08:24:24.825Z,7.10
2018-01-11T08:26:51.764Z,6.40
2018-01-11T08:29:18.421Z,6.60
2018-01-11T08:31:45.418Z,7.22
2018-01-11T08:34:12.005Z,5.65
2018-01-11T08:36:38.961Z,7.20
2018-01-11T08:39:05.540Z,6.78
2018-01-11T08:41:32.122Z,6.47
2018-01-11T08:43:58.692Z,6.85
2018-01-11T08:46:25.230Z,6.80
2018-01-11T08:48:51.817Z,6.65
2018-01-11T08:51:18.420Z,5.70
2018-01-11T08:53:45.188Z,6.00
2018-01-11T08:56:11.828Z,5.72
2018-01-11T08:58:38.456Z,6.50
2018-01-11T09:01:05.067Z,6.97
2018-01-11T09:03:32.004Z,5.60
2018-01-11T09:05:58.554Z,6.25
2018-01-11T09:08:25.077Z,6.72
2018-01-11T09:10:51.804Z,5.80
2018-01-11T09:13:18.466Z,6.40
2018-01-11T09:15:45.239Z,6.20
2018-01-11T09:18:12.094Z,5.62
2018-01-11T09:20:38.842Z,5.57
2018-01-11T09:23:05.426Z,6.12
2018-01-11T09:25:32.363Z,5.95
2018-01-11T09:27:58.968Z,5.68
2018-01-11T09:30:25.541Z,6.05
2018-01-11T09:32:52.191Z,6.28
2018-01-11T09:35:18.942Z,6.60
2018-01-11T09:37:45.610Z,5.47
2018-01-11T09:40:12.313Z,5.70
2018-01-11T09:42:38.876Z,5.57
2018-01-11T09:45:05.936Z,6.45
2018-01-11T09:47:32.599Z,6.87
2018-01-11T09:49:59.217Z,5.97
2018-01-11T09:52:25.739Z,6.62
2018-01-11T09:54:52.825Z,6.65
2018-01-11T09:57:19.815Z,6.78
2018-01-11T09:59:46.637Z,6.43
2018-01-11T10:02:13.312Z,6.95
2018-01-11T10:04:39.932Z,5.85
2018-01-11T10:07:06.447Z,6.18
2018-01-11T10:09:33.436Z,6.18
2018-01-11T10:11:59.989Z,6.05
2018-01-11T10:14:26.533Z,6.32
2018-01-11T10:16:53.085Z,6.32
2018-01-11T10:19:19.962Z,6.30
2018-01-11T10:21:46.717Z,6.68
2018-01-11T10:24:13.657Z,6.47
2018-01-11T10:26:40.290Z,6.10
2018-01-11T10:29:06.853Z,6.07
2018-01-11T10:31:33.618Z,5.78
2018-01-11T10:34:00.237Z,5.97
2018-01-11T10:36:26.829Z,6.43
2018-01-11T10:38:53.388Z,6.15
2018-01-11T10:41:19.960Z,7.28
2018-01-11T10:43:46.953Z,6.80
2018-01-11T10:46:13.825Z,6.90
2018-01-11T10:48:40.409Z,6.87
2018-01-11T10:51:07.324Z,6.20
2018-01-11T10:53:33.975Z,6.65
2018-01-11T10:56:00.569Z,6.18
2018-01-11T10:58:27.464Z,6.40
2018-01-11T11:01:07.030Z,6.43
2018-01-11T11:03:33.683Z,5.75
2018-01-11T11:06:00.204Z,6.00
2018-01-11T11:08:26.848Z,5.40
2018-01-11T11:10:53.401Z,5.62
2018-01-11T11:13:19.937Z,5.30
2018-01-11T11:15:46.625Z,6.05
2018-01-11T11:18:13.456Z,6.20
2018-01-11T11:20:40.059Z,5.85
2018-01-11T11:23:07.001Z,7.03
2018-01-11T11:25:33.624Z,6.70
2018-01-11T11:28:00.145Z,5.30
2018-01-11T11:30:26.702Z,5.57
2018-01-11T11:32:53.253Z,5.75
2018-01-11T11:35:19.781Z,5.95
2018-01-11T11:37:46.346Z,6.25
2018-01-11T11:40:12.932Z,5.50
2018-01-11T11:42:39.833Z,5.40
2018-01-11T11:45:06.390Z,5.30
2018-01-11T11:47:32.970Z,5.93
2018-01-11T11:49:59.508Z,6.18
2018-01-11T11:52:26.065Z,5.03
2018-01-11T11:54:52.649Z,6.45
2018-01-11T11:57:19.554Z,5.65
2018-01-11T11:59:46.517Z,6.30
2018-01-11T12:02:13.509Z,5.82
2018-01-11T12:04:40.529Z,6.07
2018-01-11T12:07:07.085Z,6.32
2018-01-11T12:09:33.697Z,6.20
2018-01-11T12:12:00.224Z,5.43
2018-01-11T12:14:26.777Z,5.68
2018-01-11T12:16:53.366Z,6.20
2018-01-11T12:19:20.089Z,6.15
2018-01-11T12:21:46.871Z,5.85
2018-01-11T12:24:13.469Z,7.15
2018-01-11T12:26:40.010Z,5.85
2018-01-11T12:29:07.021Z,5.60
2018-01-11T12:31:33.778Z,6.10
2018-01-11T12:34:00.305Z,6.07
2018-01-11T12:36:26.970Z,6.45
2018-01-11T12:38:53.655Z,5.90
2018-01-11T12:41:20.649Z,6.55
2018-01-11T12:43:47.405Z,5.45
2018-01-11T12:46:14.286Z,5.30
2018-01-11T12:48:41.312Z,5.85
2018-01-11T12:51:07.865Z,6.12
2018-01-11T12:53:34.736Z,5.53
2018-01-11T12:56:01.277Z,6.32
2018-01-11T12:58:27.832Z,6.80
2018-01-11T13:00:54.391Z,6.10
2018-01-11T13:03:20.952Z,6.40
2018-01-11T13:05:47.894Z,6.10
2018-01-11T13:08:15.052Z,5.25
2018-01-11T13:10:41.991Z,5.55
2018-01-11T13:13:08.561Z,6.40
2018-01-11T13:15:35.410Z,6.87
2018-01-11T13:18:02.029Z,6.00
2018-01-11T13:20:28.637Z,6.75
2018-01-11T13:22:55.737Z,6.72
2018-01-11T13:25:22.276Z,5.80
2018-01-11T13:27:48.861Z,6.00
2018-01-11T13:30:16.437Z,5.40
2018-01-11T13:32:43.030Z,6.65
2018-01-11T13:35:09.609Z,7.45
2018-01-11T13:37:36.438Z,6.07
2018-01-11T13:40:03.114Z,7.32
2018-01-11T13:42:29.684Z,6.10
2018-01-11T13:44:56.272Z,7.50
2018-01-11T13:47:23.257Z,7.35
2018-01-11T13:49:49.844Z,6.53
2018-01-11T13:52:17.203Z,7.12
2018-01-11T13:54:44.254Z,8.00
2018-01-11T13:57:11.286Z,6.57
2018-01-11T13:59:37.969Z,8.70
2018-01-11T14:02:04.589Z,7.65
2018-01-11T14:04:31.266Z,8.43
2018-01-11T14:06:57.831Z,8.15
2018-01-11T14:09:24.461Z,9.02
2018-01-11T14:11:51.315Z,9.52
2018-01-11T14:14:18.050Z,9.10
2018-01-11T14:16:45.332Z,10.25
2018-01-11T14:19:11.988Z,10.00
2018-01-11T14:21:38.561Z,10.70
2018-01-11T14:24:05.562Z,10.52
2018-01-11T14:26:32.205Z,11.20
2018-01-11T14:28:58.785Z,10.98
2018-01-11T14:31:25.401Z,11.48
2018-01-11T14:33:51.960Z,12.50
2018-01-11T14:36:18.934Z,12.07
2018-01-11T14:38:45.591Z,10.30
2018-01-11T14:41:12.305Z,12.10
2018-01-11T14:43:38.857Z,13.70
2018-01-11T14:46:05.500Z,13.48
2018-01-11T14:48:32.120Z,12.95
2018-01-11T14:50:58.720Z,12.65
2018-01-11T14:53:25.254Z,11.93
2018-01-11T14:55:51.897Z,11.32
2018-01-11T14:58:18.782Z,9.60
2018-01-11T15:00:45.428Z,9.10
2018-01-11T15:03:12.017Z,10.55
2018-01-11T15:05:38.961Z,11.07
2018-01-11T15:08:05.683Z,8.88
2018-01-11T15:10:32.301Z,9.60
2018-01-11T15:12:58.874Z,9.32
2018-01-11T15:15:25.427Z,10.52
2018-01-11T15:17:52.009Z,10.70
2018-01-11T15:20:19.138Z,11.10
2018-01-11T15:22:46.711Z,10.18
2018-01-11T15:25:13.469Z,9.43
2018-01-11T15:27:40.417Z,8.38
2018-01-11T15:30:07.049Z,9.15
2018-01-11T15:32:34.022Z,9.68
2018-01-11T15:35:00.610Z,8.52
2018-01-11T15:37:27.512Z,8.90
2018-01-11T15:39:54.105Z,8.15
2018-01-11T15:42:21.131Z,8.38
2018-01-11T15:44:48.554Z,8.52
2018-01-11T15:47:16.420Z,9.90
2018-01-11T15:49:44.047Z,11.85
2018-01-11T15:52:10.665Z,15.77
2018-01-11T15:54:37.247Z,16.87
2018-01-11T15:57:04.097Z,16.58
2018-01-11T15:59:30.637Z,18.67
2018-01-11T16:01:57.281Z,18.52
2018-01-11T16:04:23.845Z,20.40
2018-01-11T16:06:50.497Z,18.15
2018-01-11T16:09:17.410Z,17.20
2018-01-11T16:11:44.047Z,18.90
2018-01-11T16:14:10.644Z,20.12
2018-01-11T16:16:37.217Z,21.05
2018-01-11T16:19:03.824Z,19.80
2018-01-11T16:21:30.490Z,18.10
2018-01-11T16:23:57.114Z,20.42
2018-01-11T16:26:23.744Z,20.30
2018-01-11T16:28:50.408Z,19.30
2018-01-11T16:31:17.395Z,21.45
2018-01-11T16:33:44.452Z,20.42
2018-01-11T16:36:11.103Z,23.70
2018-01-11T16:38:37.685Z,23.00
2018-01-11T16:41:05.020Z,22.55
2018-01-11T16:43:31.665Z,25.05
2018-01-11T16:45:58.230Z,22.87
2018-01-11T16:48:24.794Z,21.92
2018-01-11T16:50:51.410Z,20.65
2018-01-11T16:53:18.269Z,19.83
2018-01-11T16:55:45.021Z,18.62
2018-01-11T16:58:11.574Z,17.62
2018-01-11T17:00:38.141Z,21.92
2018-01-11T17:03:05.152Z,21.52
2018-01-11T17:05:31.693Z,20.40
2018-01-11T17:07:58.772Z,22.80
2018-01-11T17:10:25.342Z,23.10
2018-01-11T17:12:51.941Z,21.00
2018-01-11T17:15:18.522Z,20.55
2018-01-11T17:17:45.137Z,23.67
2018-01-11T17:20:11.795Z,22.37
2018-01-11T17:22:38.778Z,22.10
2018-01-11T17:25:05.395Z,21.12
2018-01-11T17:27:32.004Z,25.45
2018-01-11T17:29:59.028Z,24.23
2018-01-11T17:32:25.645Z,24.58
2018-01-11T17:34:52.223Z,25.62
2018-01-11T17:37:18.786Z,25.88
2018-01-11T17:39:45.389Z,25.45
2018-01-11T17:42:11.967Z,25.02
2018-01-11T17:44:39.522Z,21.87
2018-01-11T17:47:06.105Z,18.27
2018-01-11T17:49:32.806Z,20.73
2018-01-11T17:51:59.458Z,25.80
2018-01-11T17:54:26.101Z,24.50
2018-01-11T17:56:52.653Z,26.02
2018-01-11T17:59:19.331Z,24.17
2018-01-11T18:01:45.981Z,25.88
2018-01-11T18:04:12.732Z,27.37
2018-01-11T18:06:39.597Z,23.75
2018-01-11T18:09:06.948Z,24.45
2018-01-11T18:11:33.598Z,26.08
2018-01-11T18:14:00.205Z,26.75
2018-01-11T18:16:26.767Z,24.15
2018-01-11T18:18:53.445Z,24.55
2018-01-11T18:21:20.095Z,26.42
2018-01-11T18:23:46.661Z,24.70
2018-01-11T18:26:13.504Z,25.60
2018-01-11T18:28:40.749Z,20.33
2018-01-11T18:31:07.621Z,23.45
2018-01-11T18:33:34.877Z,23.02
2018-01-11T18:36:01.497Z,25.42
2018-01-11T18:38:28.378Z,23.35
2018-01-11T18:40:54.910Z,22.77
2018-01-11T18:43:21.674Z,23.17
2018-01-11T18:45:48.245Z,21.60
2018-01-11T18:48:15.054Z,21.12
2018-01-11T18:50:41.645Z,23.65
2018-01-11T18:53:08.244Z,23.15
2018-01-11T18:55:34.823Z,20.95
2018-01-11T18:58:01.382Z,22.92
2018-01-11T19:00:28.430Z,24.65
2018-01-11T19:02:55.049Z,21.37
2018-01-11T19:05:21.613Z,23.55
2018-01-11T19:07:48.181Z,23.10
2018-01-11T19:10:14.794Z,22.62
2018-01-11T19:12:41.473Z,26.55
2018-01-11T19:15:09.124Z,21.10
2018-01-11T19:17:35.726Z,24.37
2018-01-11T19:20:02.690Z,21.33
2018-01-11T19:22:30.259Z,22.92
2018-01-11T19:24:57.177Z,20.65
2018-01-11T19:27:23.847Z,22.60
2018-01-11T19:29:50.550Z,23.45
2018-01-11T19:32:17.197Z,20.12
2018-01-11T19:34:43.849Z,21.70
2018-01-11T19:37:11.210Z,22.60
2018-01-11T19:39:38.077Z,20.20
2018-01-11T19:42:04.818Z,21.50
2018-01-11T19:44:31.606Z,24.70
2018-01-11T19:46:58.250Z,24.05
2018-01-11T19:49:25.907Z,22.25
2018-01-11T19:51:52.572Z,23.73
2018-01-11T19:54:20.589Z,26.00
2018-01-11T19:56:47.203Z,27.60
2018-01-11T19:59:13.885Z,27.87
2018-01-11T20:01:40.845Z,25.17
2018-01-11T20:04:08.280Z,25.25
2018-01-11T20:06:34.861Z,22.87
2018-01-11T20:09:01.882Z,22.87
2018-01-11T20:11:28.535Z,19.98
2018-01-11T20:13:55.182Z,20.02
2018-01-11T20:16:22.701Z,21.90
2018-01-11T20:18:49.636Z,21.23
2018-01-11T20:21:16.218Z,23.98
2018-01-11T20:23:43.273Z,22.37
2018-01-11T20:26:09.901Z,20.37
2018-01-11T20:28:36.889Z,19.20
2018-01-11T20:31:03.630Z,20.85
2018-01-11T20:33:31.096Z,19.50
2018-01-11T20:35:57.668Z,19.85
2018-01-11T20:38:24.326Z,18.08
2018-01-11T20:40:50.957Z,21.92
2018-01-11T20:43:17.610Z,20.35
2018-01-11T20:45:44.153Z,19.30
2018-01-11T20:48:11.859Z,16.90
2018-01-11T20:50:39.429Z,17.23
2018-01-11T20:53:06.178Z,15.00
2018-01-11T20:55:32.829Z,14.48
2018-01-11T20:57:59.580Z,14.25
2018-01-11T21:00:26.333Z,14.55
2018-01-11T21:02:53.600Z,14.80
2018-01-11T21:05:20.322Z,17.98
2018-01-11T21:07:46.865Z,20.15
2018-01-11T21:10:13.530Z,16.23
2018-01-11T21:12:40.177Z,14.95
2018-01-11T21:15:06.735Z,17.98
2018-01-11T21:17:33.696Z,14.90
2018-01-11T21:20:00.318Z,15.85
2018-01-11T21:22:26.893Z,16.58
2018-01-11T21:24:53.462Z,16.20
2018-01-11T21:27:20.053Z,14.38
2018-01-11T21:29:46.593Z,15.93
2018-01-11T21:32:13.594Z,16.42
2018-01-11T21:34:40.553Z,14.10
2018-01-11T21:37:07.170Z,13.75
2018-01-11T21:39:33.778Z,14.43
2018-01-11T21:42:00.809Z,14.15
2018-01-11T21:44:27.456Z,13.73
2018-01-11T21:46:54.040Z,16.25
2018-01-11T21:49:21.000Z,14.00
2018-01-11T21:51:48.028Z,15.75
2018-01-11T21:54:14.673Z,15.32
2018-01-11T21:56:42.230Z,17.60
2018-01-11T21:59:08.999Z,15.48
2018-01-11T22:01:36.029Z,15.35
2018-01-11T22:04:02.673Z,16.00
2018-01-11T22:06:29.660Z,14.00
2018-01-11T22:08:56.241Z,15.50
2018-01-11T22:11:23.226Z,15.10
2018-01-11T22:13:49.769Z,13.30
2018-01-11T22:16:16.345Z,12.80
2018-01-11T22:18:42.914Z,14.80
2018-01-11T22:21:09.481Z,15.48
2018-01-11T22:23:36.281Z,15.15
2018-01-11T22:26:03.114Z,17.35
2018-01-11T22:28:29.809Z,18.83
2018-01-11T22:30:56.660Z,16.83
2018-01-11T22:33:23.315Z,15.90
2018-01-11T22:35:49.932Z,15.07
2018-01-11T22:38:16.612Z,15.57
2018-01-11T22:40:43.185Z,16.83
2018-01-11T22:43:09.985Z,16.25
2018-01-11T22:45:36.768Z,15.27
2018-01-11T22:48:03.515Z,17.90
2018-01-11T22:50:30.574Z,14.57
2018-01-11T22:52:57.149Z,15.07
2018-01-11T22:55:30.705Z,15.07
2018-01-11T22:57:57.359Z,16.08
2018-01-11T23:00:24.121Z,17.75
2018-01-11T23:02:51.076Z,16.95
2018-01-11T23:05:17.713Z,17.42
2018-01-11T23:07:45.005Z,17.35
2018-01-11T23:10:12.060Z,14.48
2018-01-11T23:12:38.757Z,15.63
2018-01-11T23:15:06.690Z,14.10
2018-01-11T23:17:33.961Z,15.93
2018-01-11T23:20:00.546Z,15.27
2018-01-11T23:22:27.489Z,16.85
2018-01-11T23:24:54.026Z,18.62
2018-01-11T23:27:20.744Z,16.35
2018-01-11T23:29:48.915Z,16.27
2018-01-11T23:32:16.661Z,18.20
2018-01-11T23:34:43.784Z,17.52
2018-01-11T23:37:10.445Z,17.50
2018-01-11T23:39:37.386Z,17.02
2018-01-11T23:42:03.986Z,18.48
2018-01-11T23:44:30.658Z,17.60
2018-01-11T23:46:57.306Z,16.02
2018-01-11T23:49:23.885Z,14.82
2018-01-11T23:51:50.979Z,16.52
2018-01-11T23:54:18.061Z,16.42
2018-01-11T23:56:46.319Z,17.05
2018-01-11T23:59:14.333Z,15.93
